sensor_id;sensor_type;location;lat;lon;timestamp;P1;durP1;ratioP1;P2;durP2;ratioP2
71395;SDS011;59888;55.814;37.132;2022-09-30T00:01:44;10.23;;;5.95;;
71395;SDS011;59888;55.814;37.132;2022-09-30T00:04:14;9.05;;;5.45;;
71395;SDS011;59888;55.814;37.132;2022-09-30T00:06:50;8.32;;;5.43;;
71395;SDS011;59888;55.814;37.132;2022-09-30T00:09:17;9.57;;;5.53;;
71395;SDS011;59888;55.814;37.132;2022-09-30T00:11:44;9.52;;;6.25;;
71395;SDS011;59888;55.814;37.132;2022-09-30T00:14:15;13.40;;;6.07;;
71395;SDS011;59888;55.814;37.132;2022-09-30T00:16:43;8.65;;;5.60;;
71395;SDS011;59888;55.814;37.132;2022-09-30T00:19:09;10.23;;;5.85;;
71395;SDS011;59888;55.814;37.132;2022-09-30T00:21:35;13.30;;;6.05;;
71395;SDS011;59888;55.814;37.132;2022-09-30T00:24:01;9.52;;;6.00;;
71395;SDS011;59888;55.814;37.132;2022-09-30T00:26:28;11.23;;;6.30;;
71395;SDS011;59888;55.814;37.132;2022-09-30T00:28:54;8.95;;;5.40;;
71395;SDS011;59888;55.814;37.132;2022-09-30T00:31:22;10.98;;;5.93;;
71395;SDS011;59888;55.814;37.132;2022-09-30T00:33:50;9.63;;;5.25;;
71395;SDS011;59888;55.814;37.132;2022-09-30T00:36:40;10.50;;;6.15;;
71395;SDS011;59888;55.814;37.132;2022-09-30T00:39:11;9.50;;;6.00;;
71395;SDS011;59888;55.814;37.132;2022-09-30T00:41:39;10.30;;;5.97;;
71395;SDS011;59888;55.814;37.132;2022-09-30T00:47:22;8.85;;;5.80;;
71395;SDS011;59888;55.814;37.132;2022-09-30T00:49:54;8.10;;;5.68;;
71395;SDS011;59888;55.814;37.132;2022-09-30T00:52:21;8.65;;;5.63;;
71395;SDS011;59888;55.814;37.132;2022-09-30T00:54:48;9.43;;;5.53;;
71395;SDS011;59888;55.814;37.132;2022-09-30T00:57:15;10.63;;;5.80;;
71395;SDS011;59888;55.814;37.132;2022-09-30T00:59:43;10.43;;;5.68;;
71395;SDS011;59888;55.814;37.132;2022-09-30T01:02:12;12.02;;;5.82;;
71395;SDS011;59888;55.814;37.132;2022-09-30T01:04:38;9.43;;;5.60;;
71395;SDS011;59888;55.814;37.132;2022-09-30T01:07:07;9.13;;;5.57;;
71395;SDS011;59888;55.814;37.132;2022-09-30T01:09:36;9.52;;;5.55;;
71395;SDS011;59888;55.814;37.132;2022-09-30T01:12:08;10.00;;;5.80;;
71395;SDS011;59888;55.814;37.132;2022-09-30T01:14:40;10.10;;;5.85;;
71395;SDS011;59888;55.814;37.132;2022-09-30T01:31:16;10.30;;;6.13;;
71395;SDS011;59888;55.814;37.132;2022-09-30T01:39:37;8.32;;;5.75;;
71395;SDS011;59888;55.814;37.132;2022-09-30T01:45:09;10.18;;;5.95;;
71395;SDS011;59888;55.814;37.132;2022-09-30T01:47:44;8.70;;;5.35;;
71395;SDS011;59888;55.814;37.132;2022-09-30T01:58:39;11.45;;;8.07;;
71395;SDS011;59888;55.814;37.132;2022-09-30T02:01:12;12.02;;;8.32;;
71395;SDS011;59888;55.814;37.132;2022-09-30T02:03:47;13.18;;;8.40;;
71395;SDS011;59888;55.814;37.132;2022-09-30T02:06:17;14.20;;;8.65;;
71395;SDS011;59888;55.814;37.132;2022-09-30T02:11:19;13.77;;;8.32;;
71395;SDS011;59888;55.814;37.132;2022-09-30T02:13:54;12.75;;;7.97;;
71395;SDS011;59888;55.814;37.132;2022-09-30T02:16:26;12.15;;;8.07;;
71395;SDS011;59888;55.814;37.132;2022-09-30T02:18:58;13.32;;;7.63;;
71395;SDS011;59888;55.814;37.132;2022-09-30T02:21:34;15.52;;;7.35;;
71395;SDS011;59888;55.814;37.132;2022-09-30T02:24:06;11.73;;;7.72;;
71395;SDS011;59888;55.814;37.132;2022-09-30T02:26:38;11.50;;;7.20;;
71395;SDS011;59888;55.814;37.132;2022-09-30T02:29:30;10.60;;;6.55;;
71395;SDS011;59888;55.814;37.132;2022-09-30T02:32:03;10.38;;;6.28;;
71395;SDS011;59888;55.814;37.132;2022-09-30T02:34:34;11.15;;;6.72;;
71395;SDS011;59888;55.814;37.132;2022-09-30T02:37:14;8.70;;;6.32;;
71395;SDS011;59888;55.814;37.132;2022-09-30T02:40:46;9.15;;;5.97;;
71395;SDS011;59888;55.814;37.132;2022-09-30T02:43:01;10.82;;;5.85;;
71395;SDS011;59888;55.814;37.132;2022-09-30T02:45:30;12.02;;;6.03;;
71395;SDS011;59888;55.814;37.132;2022-09-30T02:50:49;8.88;;;5.40;;
71395;SDS011;59888;55.814;37.132;2022-09-30T02:53:21;8.50;;;5.28;;
71395;SDS011;59888;55.814;37.132;2022-09-30T02:58:29;9.55;;;5.10;;
71395;SDS011;59888;55.814;37.132;2022-09-30T03:00:55;9.13;;;5.63;;
71395;SDS011;59888;55.814;37.132;2022-09-30T03:03:24;8.52;;;5.35;;
71395;SDS011;59888;55.814;37.132;2022-09-30T03:05:56;9.27;;;5.60;;
71395;SDS011;59888;55.814;37.132;2022-09-30T03:08:22;7.40;;;5.15;;
71395;SDS011;59888;55.814;37.132;2022-09-30T03:10:49;8.77;;;5.22;;
71395;SDS011;59888;55.814;37.132;2022-09-30T03:40:39;8.77;;;4.75;;
71395;SDS011;59888;55.814;37.132;2022-09-30T03:48:26;7.57;;;4.97;;
71395;SDS011;59888;55.814;37.132;2022-09-30T03:50:55;9.68;;;5.15;;
71395;SDS011;59888;55.814;37.132;2022-09-30T03:53:23;8.98;;;5.38;;
71395;SDS011;59888;55.814;37.132;2022-09-30T03:55:50;8.65;;;5.07;;
71395;SDS011;59888;55.814;37.132;2022-09-30T03:58:17;7.20;;;4.75;;
71395;SDS011;59888;55.814;37.132;2022-09-30T04:00:48;8.40;;;4.57;;
71395;SDS011;59888;55.814;37.132;2022-09-30T04:03:19;8.63;;;4.68;;
71395;SDS011;59888;55.814;37.132;2022-09-30T04:05:46;8.52;;;5.13;;
71395;SDS011;59888;55.814;37.132;2022-09-30T04:08:12;9.30;;;5.50;;
71395;SDS011;59888;55.814;37.132;2022-09-30T04:10:39;10.15;;;5.22;;
71395;SDS011;59888;55.814;37.132;2022-09-30T04:13:06;8.27;;;5.18;;
71395;SDS011;59888;55.814;37.132;2022-09-30T04:15:33;7.63;;;4.63;;
71395;SDS011;59888;55.814;37.132;2022-09-30T04:18:01;10.10;;;5.07;;
71395;SDS011;59888;55.814;37.132;2022-09-30T04:20:28;6.80;;;4.88;;
71395;SDS011;59888;55.814;37.132;2022-09-30T04:22:58;9.15;;;5.47;;
71395;SDS011;59888;55.814;37.132;2022-09-30T04:25:25;11.20;;;5.28;;
71395;SDS011;59888;55.814;37.132;2022-09-30T04:27:52;7.72;;;4.68;;
71395;SDS011;59888;55.814;37.132;2022-09-30T04:30:19;7.75;;;4.65;;
71395;SDS011;59888;55.814;37.132;2022-09-30T04:32:45;7.80;;;4.55;;
71395;SDS011;59888;55.814;37.132;2022-09-30T04:35:11;9.18;;;5.07;;
71395;SDS011;59888;55.814;37.132;2022-09-30T04:37:41;9.82;;;5.10;;
71395;SDS011;59888;55.814;37.132;2022-09-30T04:40:07;9.50;;;4.85;;
71395;SDS011;59888;55.814;37.132;2022-09-30T04:42:39;7.90;;;4.82;;
71395;SDS011;59888;55.814;37.132;2022-09-30T04:45:11;9.40;;;4.80;;
71395;SDS011;59888;55.814;37.132;2022-09-30T04:47:38;9.18;;;5.18;;
71395;SDS011;59888;55.814;37.132;2022-09-30T04:50:07;8.23;;;4.97;;
71395;SDS011;59888;55.814;37.132;2022-09-30T04:52:33;9.73;;;5.05;;
71395;SDS011;59888;55.814;37.132;2022-09-30T04:54:59;9.23;;;5.10;;
71395;SDS011;59888;55.814;37.132;2022-09-30T04:57:25;10.57;;;4.90;;
71395;SDS011;59888;55.814;37.132;2022-09-30T04:59:51;9.07;;;4.97;;
71395;SDS011;59888;55.814;37.132;2022-09-30T05:02:18;10.00;;;5.15;;
71395;SDS011;59888;55.814;37.132;2022-09-30T05:04:43;9.90;;;5.25;;
71395;SDS011;59888;55.814;37.132;2022-09-30T05:07:10;10.52;;;5.20;;
71395;SDS011;59888;55.814;37.132;2022-09-30T05:09:36;7.82;;;5.10;;
71395;SDS011;59888;55.814;37.132;2022-09-30T05:12:02;9.73;;;5.80;;
71395;SDS011;59888;55.814;37.132;2022-09-30T05:14:28;8.98;;;5.32;;
71395;SDS011;59888;55.814;37.132;2022-09-30T05:16:54;7.22;;;4.80;;
71395;SDS011;59888;55.814;37.132;2022-09-30T05:19:20;8.55;;;4.82;;
71395;SDS011;59888;55.814;37.132;2022-09-30T05:21:46;7.32;;;4.50;;
71395;SDS011;59888;55.814;37.132;2022-09-30T05:24:12;8.25;;;4.93;;
71395;SDS011;59888;55.814;37.132;2022-09-30T05:26:38;11.30;;;5.20;;
71395;SDS011;59888;55.814;37.132;2022-09-30T05:29:05;9.35;;;4.90;;
71395;SDS011;59888;55.814;37.132;2022-09-30T05:31:31;13.07;;;5.28;;
71395;SDS011;59888;55.814;37.132;2022-09-30T05:33:58;8.73;;;5.55;;
71395;SDS011;59888;55.814;37.132;2022-09-30T05:36:24;9.27;;;5.50;;
71395;SDS011;59888;55.814;37.132;2022-09-30T05:38:50;9.77;;;4.60;;
71395;SDS011;59888;55.814;37.132;2022-09-30T05:41:16;11.63;;;5.20;;
71395;SDS011;59888;55.814;37.132;2022-09-30T05:43:44;10.00;;;5.13;;
71395;SDS011;59888;55.814;37.132;2022-09-30T05:46:12;7.38;;;4.57;;
71395;SDS011;59888;55.814;37.132;2022-09-30T05:48:39;10.15;;;4.65;;
71395;SDS011;59888;55.814;37.132;2022-09-30T05:51:05;9.68;;;5.40;;
71395;SDS011;59888;55.814;37.132;2022-09-30T05:53:32;10.48;;;4.82;;
71395;SDS011;59888;55.814;37.132;2022-09-30T05:56:02;8.23;;;4.68;;
71395;SDS011;59888;55.814;37.132;2022-09-30T05:58:29;7.70;;;5.22;;
71395;SDS011;59888;55.814;37.132;2022-09-30T06:00:55;9.02;;;4.50;;
71395;SDS011;59888;55.814;37.132;2022-09-30T06:03:21;10.30;;;5.30;;
71395;SDS011;59888;55.814;37.132;2022-09-30T06:05:47;9.32;;;4.78;;
71395;SDS011;59888;55.814;37.132;2022-09-30T06:08:21;8.38;;;4.85;;
71395;SDS011;59888;55.814;37.132;2022-09-30T06:10:48;7.57;;;4.72;;
71395;SDS011;59888;55.814;37.132;2022-09-30T06:13:13;8.30;;;4.60;;
71395;SDS011;59888;55.814;37.132;2022-09-30T06:15:41;6.63;;;4.50;;
71395;SDS011;59888;55.814;37.132;2022-09-30T06:18:08;9.43;;;4.68;;
71395;SDS011;59888;55.814;37.132;2022-09-30T06:20:37;8.23;;;4.93;;
71395;SDS011;59888;55.814;37.132;2022-09-30T06:23:03;8.30;;;4.43;;
71395;SDS011;59888;55.814;37.132;2022-09-30T06:25:29;7.20;;;4.32;;
71395;SDS011;59888;55.814;37.132;2022-09-30T06:27:56;8.85;;;4.38;;
71395;SDS011;59888;55.814;37.132;2022-09-30T06:30:22;9.90;;;5.28;;
71395;SDS011;59888;55.814;37.132;2022-09-30T06:32:49;7.35;;;4.75;;
71395;SDS011;59888;55.814;37.132;2022-09-30T06:35:15;8.48;;;4.85;;
71395;SDS011;59888;55.814;37.132;2022-09-30T06:37:43;8.73;;;5.38;;
71395;SDS011;59888;55.814;37.132;2022-09-30T06:40:09;7.20;;;4.55;;
71395;SDS011;59888;55.814;37.132;2022-09-30T06:42:36;11.02;;;4.93;;
71395;SDS011;59888;55.814;37.132;2022-09-30T06:45:02;9.20;;;5.22;;
71395;SDS011;59888;55.814;37.132;2022-09-30T06:47:30;10.38;;;4.75;;
71395;SDS011;59888;55.814;37.132;2022-09-30T06:49:57;8.32;;;4.88;;
71395;SDS011;59888;55.814;37.132;2022-09-30T06:52:23;8.82;;;5.00;;
71395;SDS011;59888;55.814;37.132;2022-09-30T06:54:50;7.63;;;4.90;;
71395;SDS011;59888;55.814;37.132;2022-09-30T06:57:17;6.68;;;4.47;;
71395;SDS011;59888;55.814;37.132;2022-09-30T06:59:47;10.43;;;4.82;;
71395;SDS011;59888;55.814;37.132;2022-09-30T07:02:13;8.45;;;4.45;;
71395;SDS011;59888;55.814;37.132;2022-09-30T07:04:39;7.95;;;4.80;;
71395;SDS011;59888;55.814;37.132;2022-09-30T07:07:05;8.40;;;4.75;;
71395;SDS011;59888;55.814;37.132;2022-09-30T07:09:31;8.55;;;4.50;;
71395;SDS011;59888;55.814;37.132;2022-09-30T07:11:57;7.95;;;4.40;;
71395;SDS011;59888;55.814;37.132;2022-09-30T07:14:23;7.88;;;4.30;;
71395;SDS011;59888;55.814;37.132;2022-09-30T07:16:49;9.50;;;5.00;;
71395;SDS011;59888;55.814;37.132;2022-09-30T07:19:17;7.25;;;4.10;;
71395;SDS011;59888;55.814;37.132;2022-09-30T07:21:50;7.75;;;4.47;;
71395;SDS011;59888;55.814;37.132;2022-09-30T07:24:16;9.13;;;4.88;;
71395;SDS011;59888;55.814;37.132;2022-09-30T07:26:42;10.48;;;4.57;;
71395;SDS011;59888;55.814;37.132;2022-09-30T07:29:12;11.23;;;4.97;;
71395;SDS011;59888;55.814;37.132;2022-09-30T07:31:38;9.13;;;4.82;;
71395;SDS011;59888;55.814;37.132;2022-09-30T07:34:05;9.50;;;4.60;;
71395;SDS011;59888;55.814;37.132;2022-09-30T07:36:32;9.00;;;4.80;;
71395;SDS011;59888;55.814;37.132;2022-09-30T07:39:01;11.52;;;4.53;;
71395;SDS011;59888;55.814;37.132;2022-09-30T07:41:33;8.32;;;4.28;;
71395;SDS011;59888;55.814;37.132;2022-09-30T07:44:00;9.23;;;4.47;;
71395;SDS011;59888;55.814;37.132;2022-09-30T07:46:28;8.40;;;4.68;;
71395;SDS011;59888;55.814;37.132;2022-09-30T07:48:56;9.02;;;4.35;;
71395;SDS011;59888;55.814;37.132;2022-09-30T07:51:27;7.50;;;4.97;;
71395;SDS011;59888;55.814;37.132;2022-09-30T07:53:59;7.50;;;4.82;;
71395;SDS011;59888;55.814;37.132;2022-09-30T07:56:27;10.80;;;4.85;;
71395;SDS011;59888;55.814;37.132;2022-09-30T07:58:54;6.78;;;4.55;;
71395;SDS011;59888;55.814;37.132;2022-09-30T08:01:25;9.48;;;4.82;;
71395;SDS011;59888;55.814;37.132;2022-09-30T08:03:53;8.10;;;4.95;;
71395;SDS011;59888;55.814;37.132;2022-09-30T08:06:21;10.65;;;5.25;;
71395;SDS011;59888;55.814;37.132;2022-09-30T08:08:49;9.50;;;5.57;;
71395;SDS011;59888;55.814;37.132;2022-09-30T08:11:15;10.38;;;5.97;;
71395;SDS011;59888;55.814;37.132;2022-09-30T08:13:42;12.30;;;5.68;;
71395;SDS011;59888;55.814;37.132;2022-09-30T09:54:23;11.70;;;6.78;;
71395;SDS011;59888;55.814;37.132;2022-09-30T09:56:52;9.88;;;7.03;;
71395;SDS011;59888;55.814;37.132;2022-09-30T09:59:19;12.13;;;7.30;;
71395;SDS011;59888;55.814;37.132;2022-09-30T10:04:16;11.18;;;6.55;;
71395;SDS011;59888;55.814;37.132;2022-09-30T10:09:39;12.35;;;6.63;;
71395;SDS011;59888;55.814;37.132;2022-09-30T10:14:33;10.73;;;6.80;;
71395;SDS011;59888;55.814;37.132;2022-09-30T10:17:01;9.82;;;7.07;;
71395;SDS011;59888;55.814;37.132;2022-09-30T10:19:29;12.57;;;7.20;;
71395;SDS011;59888;55.814;37.132;2022-09-30T10:24:36;15.68;;;7.55;;
71395;SDS011;59888;55.814;37.132;2022-09-30T10:27:03;14.68;;;7.05;;
71395;SDS011;59888;55.814;37.132;2022-09-30T10:29:49;9.48;;;6.78;;
71395;SDS011;59888;55.814;37.132;2022-09-30T10:32:14;11.88;;;7.07;;
71395;SDS011;59888;55.814;37.132;2022-09-30T10:34:41;9.32;;;6.85;;
71395;SDS011;59888;55.814;37.132;2022-09-30T10:37:12;10.63;;;7.63;;
71395;SDS011;59888;55.814;37.132;2022-09-30T10:39:43;11.00;;;6.95;;
71395;SDS011;59888;55.814;37.132;2022-09-30T10:42:26;13.02;;;6.80;;
71395;SDS011;59888;55.814;37.132;2022-09-30T10:47:23;11.27;;;6.20;;
71395;SDS011;59888;55.814;37.132;2022-09-30T10:52:40;10.85;;;7.00;;
71395;SDS011;59888;55.814;37.132;2022-09-30T10:57:43;12.65;;;7.00;;
71395;SDS011;59888;55.814;37.132;2022-09-30T11:00:13;11.10;;;7.45;;
71395;SDS011;59888;55.814;37.132;2022-09-30T11:02:55;11.38;;;7.05;;
71395;SDS011;59888;55.814;37.132;2022-09-30T11:08:12;10.60;;;7.03;;
71395;SDS011;59888;55.814;37.132;2022-09-30T11:21:11;12.35;;;7.50;;
71395;SDS011;59888;55.814;37.132;2022-09-30T11:23:52;9.63;;;6.82;;
71395;SDS011;59888;55.814;37.132;2022-09-30T11:29:30;10.05;;;6.65;;
71395;SDS011;59888;55.814;37.132;2022-09-30T11:43:03;10.38;;;6.63;;
71395;SDS011;59888;55.814;37.132;2022-09-30T11:56:45;11.68;;;7.05;;
71395;SDS011;59888;55.814;37.132;2022-09-30T11:59:38;9.48;;;6.80;;
71395;SDS011;59888;55.814;37.132;2022-09-30T12:02:52;10.93;;;6.95;;
71395;SDS011;59888;55.814;37.132;2022-09-30T12:05:09;12.43;;;7.00;;
71395;SDS011;59888;55.814;37.132;2022-09-30T12:10:18;11.50;;;6.65;;
71395;SDS011;59888;55.814;37.132;2022-09-30T12:12:48;14.27;;;6.65;;
71395;SDS011;59888;55.814;37.132;2022-09-30T12:15:20;13.73;;;6.93;;
71395;SDS011;59888;55.814;37.132;2022-09-30T12:17:56;10.40;;;6.38;;
71395;SDS011;59888;55.814;37.132;2022-09-30T12:25:50;11.43;;;7.07;;
71395;SDS011;59888;55.814;37.132;2022-09-30T12:28:39;11.88;;;6.63;;
71395;SDS011;59888;55.814;37.132;2022-09-30T12:51:24;13.35;;;7.00;;
71395;SDS011;59888;55.814;37.132;2022-09-30T12:54:06;13.48;;;7.50;;
71395;SDS011;59888;55.814;37.132;2022-09-30T12:56:43;15.00;;;7.68;;
71395;SDS011;59888;55.814;37.132;2022-09-30T12:59:11;13.02;;;7.85;;
71395;SDS011;59888;55.814;37.132;2022-09-30T13:01:39;13.48;;;7.93;;
71395;SDS011;59888;55.814;37.132;2022-09-30T13:27:51;12.32;;;7.97;;
71395;SDS011;59888;55.814;37.132;2022-09-30T13:30:34;14.68;;;8.50;;
71395;SDS011;59888;55.814;37.132;2022-09-30T13:40:48;16.92;;;9.07;;
71395;SDS011;59888;55.814;37.132;2022-09-30T13:46:03;13.73;;;7.78;;
71395;SDS011;59888;55.814;37.132;2022-09-30T13:48:53;13.55;;;8.50;;
71395;SDS011;59888;55.814;37.132;2022-09-30T13:51:23;11.98;;;7.90;;
71395;SDS011;59888;55.814;37.132;2022-09-30T13:53:53;15.27;;;8.18;;
71395;SDS011;59888;55.814;37.132;2022-09-30T13:56:24;13.02;;;8.77;;
71395;SDS011;59888;55.814;37.132;2022-09-30T14:07:41;14.40;;;7.68;;
71395;SDS011;59888;55.814;37.132;2022-09-30T14:21:18;13.90;;;8.80;;
71395;SDS011;59888;55.814;37.132;2022-09-30T14:23:57;14.38;;;8.32;;
71395;SDS011;59888;55.814;37.132;2022-09-30T14:31:43;15.10;;;9.43;;
71395;SDS011;59888;55.814;37.132;2022-09-30T14:34:11;16.08;;;10.18;;
71395;SDS011;59888;55.814;37.132;2022-09-30T14:36:39;18.33;;;10.40;;
71395;SDS011;59888;55.814;37.132;2022-09-30T14:39:05;16.45;;;10.85;;
71395;SDS011;59888;55.814;37.132;2022-09-30T14:41:48;17.90;;;10.57;;
71395;SDS011;59888;55.814;37.132;2022-09-30T14:44:16;21.63;;;11.30;;
71395;SDS011;59888;55.814;37.132;2022-09-30T14:46:44;20.58;;;11.57;;
71395;SDS011;59888;55.814;37.132;2022-09-30T14:49:14;17.65;;;11.60;;
71395;SDS011;59888;55.814;37.132;2022-09-30T14:51:44;16.67;;;11.88;;
71395;SDS011;59888;55.814;37.132;2022-09-30T14:54:22;19.13;;;12.40;;
71395;SDS011;59888;55.814;37.132;2022-09-30T14:56:50;20.58;;;11.70;;
71395;SDS011;59888;55.814;37.132;2022-09-30T15:01:49;19.90;;;12.77;;
71395;SDS011;59888;55.814;37.132;2022-09-30T15:04:27;18.50;;;12.65;;
71395;SDS011;59888;55.814;37.132;2022-09-30T15:06:56;19.00;;;12.90;;
71395;SDS011;59888;55.814;37.132;2022-09-30T15:09:28;22.08;;;13.32;;
71395;SDS011;59888;55.814;37.132;2022-09-30T15:12:04;18.85;;;12.48;;
71395;SDS011;59888;55.814;37.132;2022-09-30T15:14:31;17.33;;;11.32;;
71395;SDS011;59888;55.814;37.132;2022-09-30T15:16:58;20.67;;;13.00;;
71395;SDS011;59888;55.814;37.132;2022-09-30T15:22:00;20.88;;;13.68;;
71395;SDS011;59888;55.814;37.132;2022-09-30T15:24:30;20.90;;;13.68;;
71395;SDS011;59888;55.814;37.132;2022-09-30T15:26:57;19.75;;;13.00;;
71395;SDS011;59888;55.814;37.132;2022-09-30T15:29:25;23.02;;;14.50;;
71395;SDS011;59888;55.814;37.132;2022-09-30T15:32:24;24.15;;;14.90;;
71395;SDS011;59888;55.814;37.132;2022-09-30T15:37:19;24.92;;;15.00;;
71395;SDS011;59888;55.814;37.132;2022-09-30T15:39:48;21.33;;;13.60;;
71395;SDS011;59888;55.814;37.132;2022-09-30T15:45:28;21.65;;;12.98;;
71395;SDS011;59888;55.814;37.132;2022-09-30T15:48:38;23.65;;;14.48;;
71395;SDS011;59888;55.814;37.132;2022-09-30T15:50:55;22.98;;;14.30;;
71395;SDS011;59888;55.814;37.132;2022-09-30T15:53:24;20.95;;;13.48;;
71395;SDS011;59888;55.814;37.132;2022-09-30T15:55:54;17.92;;;11.40;;
71395;SDS011;59888;55.814;37.132;2022-09-30T15:58:34;17.80;;;11.18;;
71395;SDS011;59888;55.814;37.132;2022-09-30T16:01:17;17.55;;;10.80;;
71395;SDS011;59888;55.814;37.132;2022-09-30T16:03:58;16.17;;;10.95;;
71395;SDS011;59888;55.814;37.132;2022-09-30T16:06:59;16.52;;;10.70;;
71395;SDS011;59888;55.814;37.132;2022-09-30T16:17:05;17.13;;;11.65;;
71395;SDS011;59888;55.814;37.132;2022-09-30T16:19:40;17.98;;;12.20;;
71395;SDS011;59888;55.814;37.132;2022-09-30T16:22:18;18.38;;;11.70;;
71395;SDS011;59888;55.814;37.132;2022-09-30T16:27:37;18.08;;;12.75;;
71395;SDS011;59888;55.814;37.132;2022-09-30T16:30:03;23.42;;;14.15;;
71395;SDS011;59888;55.814;37.132;2022-09-30T16:32:32;24.73;;;14.95;;
71395;SDS011;59888;55.814;37.132;2022-09-30T16:35:03;25.65;;;16.60;;
71395;SDS011;59888;55.814;37.132;2022-09-30T16:37:30;24.95;;;15.73;;
71395;SDS011;59888;55.814;37.132;2022-09-30T16:39:57;25.92;;;15.52;;
71395;SDS011;59888;55.814;37.132;2022-09-30T16:42:29;24.60;;;15.48;;
71395;SDS011;59888;55.814;37.132;2022-09-30T16:44:57;26.20;;;15.75;;
71395;SDS011;59888;55.814;37.132;2022-09-30T16:47:25;24.02;;;15.60;;
71395;SDS011;59888;55.814;37.132;2022-09-30T16:49:51;25.23;;;15.23;;
71395;SDS011;59888;55.814;37.132;2022-09-30T16:52:17;22.75;;;14.35;;
71395;SDS011;59888;55.814;37.132;2022-09-30T16:54:42;25.45;;;15.43;;
71395;SDS011;59888;55.814;37.132;2022-09-30T16:57:10;23.90;;;15.00;;
71395;SDS011;59888;55.814;37.132;2022-09-30T16:59:37;25.25;;;15.70;;
71395;SDS011;59888;55.814;37.132;2022-09-30T17:02:03;24.63;;;15.63;;
71395;SDS011;59888;55.814;37.132;2022-09-30T17:04:29;25.02;;;14.88;;
71395;SDS011;59888;55.814;37.132;2022-09-30T17:06:57;22.73;;;14.38;;
71395;SDS011;59888;55.814;37.132;2022-09-30T17:09:23;23.00;;;14.00;;
71395;SDS011;59888;55.814;37.132;2022-09-30T17:11:49;24.38;;;14.80;;
71395;SDS011;59888;55.814;37.132;2022-09-30T17:14:17;22.98;;;13.90;;
71395;SDS011;59888;55.814;37.132;2022-09-30T17:16:44;27.38;;;15.05;;
71395;SDS011;59888;55.814;37.132;2022-09-30T17:19:10;22.13;;;14.32;;
71395;SDS011;59888;55.814;37.132;2022-09-30T17:21:37;21.42;;;13.73;;
71395;SDS011;59888;55.814;37.132;2022-09-30T17:24:03;20.13;;;13.10;;
71395;SDS011;59888;55.814;37.132;2022-09-30T17:26:30;21.13;;;14.00;;
71395;SDS011;59888;55.814;37.132;2022-09-30T17:28:55;21.30;;;12.88;;
71395;SDS011;59888;55.814;37.132;2022-09-30T17:31:21;23.38;;;13.88;;
71395;SDS011;59888;55.814;37.132;2022-09-30T17:33:47;23.33;;;14.25;;
71395;SDS011;59888;55.814;37.132;2022-09-30T17:36:13;24.08;;;14.63;;
71395;SDS011;59888;55.814;37.132;2022-09-30T17:38:39;20.83;;;13.88;;
71395;SDS011;59888;55.814;37.132;2022-09-30T17:41:05;20.73;;;13.70;;
71395;SDS011;59888;55.814;37.132;2022-09-30T17:43:51;21.60;;;13.38;;
71395;SDS011;59888;55.814;37.132;2022-09-30T17:46:18;19.30;;;12.98;;
71395;SDS011;59888;55.814;37.132;2022-09-30T17:48:47;20.80;;;12.85;;
71395;SDS011;59888;55.814;37.132;2022-09-30T17:51:15;23.27;;;13.85;;
71395;SDS011;59888;55.814;37.132;2022-09-30T17:53:41;24.30;;;13.85;;
71395;SDS011;59888;55.814;37.132;2022-09-30T17:56:15;22.75;;;14.35;;
71395;SDS011;59888;55.814;37.132;2022-09-30T17:58:43;24.27;;;14.18;;
71395;SDS011;59888;55.814;37.132;2022-09-30T18:01:13;24.10;;;14.48;;
71395;SDS011;59888;55.814;37.132;2022-09-30T18:03:40;27.08;;;15.05;;
71395;SDS011;59888;55.814;37.132;2022-09-30T18:06:05;20.75;;;13.40;;
71395;SDS011;59888;55.814;37.132;2022-09-30T18:08:32;19.80;;;13.27;;
71395;SDS011;59888;55.814;37.132;2022-09-30T18:10:59;20.73;;;13.55;;
71395;SDS011;59888;55.814;37.132;2022-09-30T18:13:28;19.33;;;13.23;;
71395;SDS011;59888;55.814;37.132;2022-09-30T18:15:55;22.75;;;14.00;;
71395;SDS011;59888;55.814;37.132;2022-09-30T18:18:28;21.80;;;13.77;;
71395;SDS011;59888;55.814;37.132;2022-09-30T18:20:54;20.70;;;13.60;;
71395;SDS011;59888;55.814;37.132;2022-09-30T18:23:20;20.38;;;12.55;;
71395;SDS011;59888;55.814;37.132;2022-09-30T18:25:46;23.35;;;14.10;;
71395;SDS011;59888;55.814;37.132;2022-09-30T18:28:14;21.55;;;13.50;;
71395;SDS011;59888;55.814;37.132;2022-09-30T18:30:40;20.83;;;12.93;;
71395;SDS011;59888;55.814;37.132;2022-09-30T18:33:08;19.90;;;12.85;;
71395;SDS011;59888;55.814;37.132;2022-09-30T18:35:36;19.98;;;12.75;;
71395;SDS011;59888;55.814;37.132;2022-09-30T18:38:03;20.60;;;12.85;;
71395;SDS011;59888;55.814;37.132;2022-09-30T18:40:30;19.40;;;12.95;;
71395;SDS011;59888;55.814;37.132;2022-09-30T18:42:57;19.75;;;12.25;;
71395;SDS011;59888;55.814;37.132;2022-09-30T18:45:28;21.75;;;13.07;;
71395;SDS011;59888;55.814;37.132;2022-09-30T18:47:56;17.60;;;11.82;;
71395;SDS011;59888;55.814;37.132;2022-09-30T18:50:24;20.90;;;11.98;;
71395;SDS011;59888;55.814;37.132;2022-09-30T18:52:51;17.40;;;12.20;;
71395;SDS011;59888;55.814;37.132;2022-09-30T18:55:18;18.85;;;11.70;;
71395;SDS011;59888;55.814;37.132;2022-09-30T18:57:44;19.17;;;12.35;;
71395;SDS011;59888;55.814;37.132;2022-09-30T19:00:12;17.48;;;11.40;;
71395;SDS011;59888;55.814;37.132;2022-09-30T19:02:39;19.83;;;12.07;;
71395;SDS011;59888;55.814;37.132;2022-09-30T19:05:06;19.42;;;12.35;;
71395;SDS011;59888;55.814;37.132;2022-09-30T19:07:32;18.83;;;12.10;;
71395;SDS011;59888;55.814;37.132;2022-09-30T19:09:59;17.02;;;11.73;;
71395;SDS011;59888;55.814;37.132;2022-09-30T19:12:30;18.42;;;11.63;;
71395;SDS011;59888;55.814;37.132;2022-09-30T19:15:03;18.98;;;11.98;;
71395;SDS011;59888;55.814;37.132;2022-09-30T19:17:36;20.02;;;12.52;;
71395;SDS011;59888;55.814;37.132;2022-09-30T19:20:02;20.58;;;12.63;;
71395;SDS011;59888;55.814;37.132;2022-09-30T19:22:31;18.50;;;12.20;;
71395;SDS011;59888;55.814;37.132;2022-09-30T19:25:05;19.70;;;12.55;;
71395;SDS011;59888;55.814;37.132;2022-09-30T19:27:32;18.55;;;11.43;;
71395;SDS011;59888;55.814;37.132;2022-09-30T19:30:06;19.77;;;11.30;;
71395;SDS011;59888;55.814;37.132;2022-09-30T19:32:33;19.80;;;11.98;;
71395;SDS011;59888;55.814;37.132;2022-09-30T19:35:01;19.55;;;12.07;;
71395;SDS011;59888;55.814;37.132;2022-09-30T19:37:29;19.42;;;11.88;;
71395;SDS011;59888;55.814;37.132;2022-09-30T19:39:55;22.83;;;13.10;;
71395;SDS011;59888;55.814;37.132;2022-09-30T19:42:21;21.67;;;12.93;;
71395;SDS011;59888;55.814;37.132;2022-09-30T19:44:47;20.75;;;12.68;;
71395;SDS011;59888;55.814;37.132;2022-09-30T19:47:14;22.08;;;12.73;;
71395;SDS011;59888;55.814;37.132;2022-09-30T19:49:41;21.73;;;12.95;;
71395;SDS011;59888;55.814;37.132;2022-09-30T19:52:07;20.27;;;12.95;;
71395;SDS011;59888;55.814;37.132;2022-09-30T19:54:32;20.80;;;13.07;;
71395;SDS011;59888;55.814;37.132;2022-09-30T19:56:58;22.85;;;13.27;;
71395;SDS011;59888;55.814;37.132;2022-09-30T19:59:25;22.67;;;14.23;;
71395;SDS011;59888;55.814;37.132;2022-09-30T20:01:51;23.48;;;14.00;;
71395;SDS011;59888;55.814;37.132;2022-09-30T20:04:16;21.25;;;13.40;;
71395;SDS011;59888;55.814;37.132;2022-09-30T20:06:43;24.55;;;13.95;;
71395;SDS011;59888;55.814;37.132;2022-09-30T20:09:10;21.58;;;12.48;;
71395;SDS011;59888;55.814;37.132;2022-09-30T20:11:36;23.80;;;14.25;;
71395;SDS011;59888;55.814;37.132;2022-09-30T20:14:03;21.33;;;13.23;;